createdAt,value
2023-08-12T00:00:29.922Z,12.80
2023-08-12T00:12:30.415Z,11.70
2023-08-12T00:24:30.849Z,12.90
2023-08-12T00:36:31.319Z,12.00
2023-08-12T00:48:32.188Z,13.60
2023-08-12T01:00:32.246Z,12.70
2023-08-12T01:12:32.649Z,11.70
2023-08-12T01:24:33.107Z,11.80
2023-08-12T01:36:33.623Z,12.10
2023-08-12T01:48:34.040Z,11.40
2023-08-12T02:00:34.514Z,12.90
2023-08-12T02:12:34.972Z,12.50
2023-08-12T02:24:35.385Z,10.80
2023-08-12T02:36:35.846Z,10.20
2023-08-12T02:48:36.287Z,12.50
2023-08-12T03:00:36.737Z,11.80
2023-08-12T03:12:37.240Z,14.20
2023-08-12T03:24:37.655Z,12.10
2023-08-12T03:36:38.105Z,13.10
2023-08-12T03:48:38.559Z,11.40
2023-08-12T04:00:39.060Z,11.30
2023-08-12T04:12:39.486Z,12.10
2023-08-12T04:24:39.951Z,13.30
2023-08-12T04:36:42.539Z,13.40
2023-08-12T04:48:40.848Z,15.10
2023-08-12T05:00:41.301Z,14.50
2023-08-12T05:12:41.727Z,15.00
2023-08-12T05:24:42.183Z,18.20
2023-08-12T05:36:42.633Z,17.40
2023-08-12T05:48:43.099Z,16.10
2023-08-12T06:00:43.564Z,14.30
2023-08-12T06:12:44.029Z,11.50
2023-08-12T06:24:44.523Z,9.00
2023-08-12T06:36:44.929Z,7.60
2023-08-12T06:48:45.406Z,11.30
2023-08-12T07:00:45.826Z,5.90
2023-08-12T07:12:46.276Z,8.10
2023-08-12T07:24:46.743Z,6.20
2023-08-12T07:36:47.202Z,5.00
2023-08-12T07:48:47.634Z,3.00
2023-08-12T08:00:48.087Z,3.60
2023-08-12T08:12:48.573Z,3.90
2023-08-12T08:24:49.017Z,3.80
2023-08-12T08:36:50.365Z,3.40
2023-08-12T08:48:49.918Z,3.10
2023-08-12T09:00:50.418Z,3.30
2023-08-12T09:12:50.839Z,2.90
2023-08-12T09:24:51.319Z,4.80
2023-08-12T09:36:51.908Z,2.40
2023-08-12T09:48:52.222Z,3.80
2023-08-12T10:00:52.696Z,2.80
2023-08-12T10:12:53.142Z,2.80
2023-08-12T10:24:53.555Z,2.20
2023-08-12T10:37:01.952Z,5.90
2023-08-12T10:48:54.462Z,2.30
2023-08-12T11:00:54.934Z,2.80
2023-08-12T11:12:55.412Z,2.20
2023-08-12T11:24:55.831Z,2.60
2023-08-12T11:36:56.289Z,3.00
2023-08-12T11:48:56.798Z,2.60
2023-08-12T12:00:57.257Z,2.50
2023-08-12T12:12:57.710Z,4.00
2023-08-12T12:24:58.125Z,4.30
2023-08-12T12:36:58.657Z,2.70
2023-08-12T12:48:59.172Z,2.80
2023-08-12T13:00:59.816Z,4.40
2023-08-12T13:13:00.259Z,6.30
2023-08-12T13:25:00.678Z,2.80
2023-08-12T13:37:00.883Z,3.40
2023-08-12T13:49:01.362Z,2.30
2023-08-12T14:01:01.837Z,4.20
2023-08-12T14:13:02.249Z,1.90
2023-08-12T14:25:04.544Z,4.10
2023-08-12T14:37:03.195Z,2.60
2023-08-12T14:49:03.617Z,3.80
2023-08-12T15:01:04.190Z,1.70
2023-08-12T15:13:04.533Z,3.40
2023-08-12T15:25:05.034Z,3.50
2023-08-12T15:37:05.475Z,2.00
2023-08-12T15:49:05.888Z,1.80
2023-08-12T16:01:06.374Z,4.60
2023-08-12T16:13:06.912Z,2.50
2023-08-12T16:25:07.340Z,2.80
2023-08-12T16:49:08.244Z,4.00
2023-08-12T17:01:08.788Z,7.40
2023-08-12T17:13:09.141Z,3.40
2023-08-12T17:25:09.564Z,3.10
2023-08-12T17:37:10.039Z,4.30
2023-08-12T17:49:10.524Z,4.90
2023-08-12T18:01:11.000Z,5.70
2023-08-12T18:13:11.493Z,5.90
2023-08-12T18:25:11.842Z,11.00
2023-08-12T18:37:12.334Z,7.30
2023-08-12T18:49:12.753Z,8.20
2023-08-12T19:01:13.242Z,8.70
2023-08-12T19:13:13.716Z,12.70
2023-08-12T19:25:14.170Z,6.40
2023-08-12T19:37:14.658Z,10.10
2023-08-12T19:49:15.048Z,9.40
2023-08-12T20:01:15.756Z,7.20
2023-08-12T20:13:16.138Z,10.20
2023-08-12T20:25:16.747Z,10.90
2023-08-12T20:37:16.985Z,10.50
2023-08-12T20:49:17.317Z,8.60
2023-08-12T21:01:17.855Z,9.70
2023-08-12T21:13:18.235Z,7.90
2023-08-12T21:25:18.729Z,8.90
2023-08-12T21:37:19.146Z,9.30
2023-08-12T21:49:19.609Z,12.30
2023-08-12T22:01:20.168Z,11.30
2023-08-12T22:13:20.543Z,7.20
2023-08-12T22:25:20.992Z,7.20
2023-08-12T22:37:21.422Z,7.70
2023-08-12T22:49:21.865Z,7.80
2023-08-12T23:01:22.384Z,7.00
2023-08-12T23:13:22.812Z,9.00
2023-08-12T23:25:23.258Z,9.40
2023-08-12T23:37:23.682Z,10.60
2023-08-12T23:49:24.136Z,11.30
